Time;durP1;ratioP1;P1;durP2;ratioP2;P2;SDS_P1;SDS_P2;PMS_P1;PMS_P2;Temp;Humidity;BMP_temperature;BMP_pressure;BME280_temperature;BME280_humidity;BME280_pressure;Samples;Min_cycle;Max_cycle;Signal;HPM_P1;HPM_P2
2022/08/14 00:00:34;;;;;;;5.78;5.28;;;21.30;79.20;;;;;;5083135;28;19923;-54
2022/08/14 00:03:00;;;;;;;;;;;21.20;78.90;;;;;;5090548;28;20040;-52
2022/08/14 00:05:25;;;;;;;9.52;6.32;;;20.90;79.80;;;;;;5091079;28;19930;-53
2022/08/14 00:07:51;;;;;;;6.50;5.97;;;20.80;79.60;;;;;;5078206;28;20447;-52
2022/08/14 00:10:18;;;;;;;;;;;20.60;80.30;;;;;;5081047;28;20119;-56
2022/08/14 00:12:47;;;;;;;7.32;6.13;;;20.50;81.40;;;;;;5087116;28;19928;-57
2022/08/14 00:15:30;;;;;;;6.57;6.07;;;20.50;81.40;;;;;;5078127;28;20044;-52
2022/08/14 00:17:56;;;;;;;7.07;6.53;;;20.40;81.90;;;;;;5082467;28;20517;-52
2022/08/14 00:20:27;;;;;;;9.23;6.63;;;20.40;82.20;;;;;;5080664;28;20036;-57
2022/08/14 00:22:52;;;;;;;8.50;6.47;;;20.40;82.70;;;;;;5077139;28;20044;-53
2022/08/14 00:25:18;;;;;;;;;;;20.40;82.70;;;;;;5083724;28;20383;-52
2022/08/14 00:27:43;;;;;;;7.35;6.65;;;20.40;83.60;;;;;;5080504;28;19916;-52
2022/08/14 00:30:10;;;;;;;;;;;20.40;82.80;;;;;;5089232;28;20046;-55
2022/08/14 00:32:35;;;;;;;80.38;10.18;;;20.40;84.10;;;;;;5074716;28;19917;-56
2022/08/14 00:35:03;;;;;;;;;;;20.50;83.70;;;;;;5083987;28;20107;-52
2022/08/14 00:37:29;;;;;;;;;;;20.50;84.50;;;;;;5092854;28;19916;-56
2022/08/14 00:39:55;;;;;;;7.07;6.47;;;20.50;84.00;;;;;;5077010;28;19969;-51
2022/08/14 00:42:21;;;;;;;;;;;20.60;83.20;;;;;;5079086;28;20048;-55
2022/08/14 00:44:46;;;;;;;6.35;5.72;;;20.70;84.00;;;;;;5087002;28;19916;-54
2022/08/14 00:47:13;;;;;;;;;;;20.70;82.40;;;;;;5076210;28;20036;-54
2022/08/14 00:49:38;;;;;;;6.35;5.75;;;20.60;82.70;;;;;;5081124;28;20368;-54
2022/08/14 00:52:04;;;;;;;;;;;20.50;82.20;;;;;;5081845;28;20068;-54
2022/08/14 00:54:30;;;;;;;6.10;5.60;;;20.50;83.20;;;;;;5085131;28;19920;-51
2022/08/14 00:56:56;;;;;;;8.02;6.82;;;20.40;83.00;;;;;;5091740;28;20427;-55
2022/08/14 00:59:23;;;;;;;;;;;20.40;83.30;;;;;;5080745;28;20041;-57
2022/08/14 01:01:48;;;;;;;52.53;8.18;;;20.20;84.70;;;;;;5072694;28;19961;-52
2022/08/14 01:04:14;;;;;;;;;;;20.20;84.50;;;;;;5074736;28;20044;-54
2022/08/14 01:06:40;;;;;;;9.75;6.75;;;20.10;85.80;;;;;;5072033;28;19931;-56
2022/08/14 01:09:05;;;;;;;10.35;6.72;;;20.10;85.10;;;;;;5079297;28;20027;-56
2022/08/14 01:11:31;;;;;;;;;;;20.10;85.60;;;;;;5076171;28;20070;-55
2022/08/14 01:13:59;;;;;;;24.02;7.72;;;20.10;86.40;;;;;;5081587;28;20002;-54
2022/08/14 01:16:25;;;;;;;8.73;6.30;;;20.20;85.60;;;;;;5088772;28;20054;-57
2022/08/14 01:21:38;;;;;;;7.28;6.43;;;20.10;85.30;;;;;;5074023;28;20134;-56
2022/08/14 01:24:09;;;;;;;7.75;6.53;;;20.00;85.40;;;;;;5087411;28;20090;-55
2022/08/14 01:26:35;;;;;;;16.83;7.47;;;20.00;85.70;;;;;;5078017;28;20041;-55
2022/08/14 01:29:03;;;;;;;8.15;7.05;;;20.00;86.00;;;;;;5079852;28;20598;-52
2022/08/14 01:31:32;;;;;;;9.20;8.30;;;20.00;86.30;;;;;;5058332;28;20086;-52
2022/08/14 01:34:00;;;;;;;8.27;7.47;;;20.00;86.40;;;;;;5075018;28;20497;-53
2022/08/14 01:36:33;;;;;;;8.15;7.32;;;20.00;86.20;;;;;;5078967;28;20209;-56
2022/08/14 01:38:58;;;;;;;8.02;7.25;;;20.00;86.50;;;;;;5077820;28;20044;-52
2022/08/14 01:41:26;;;;;;;7.70;7.03;;;20.00;86.70;;;;;;5079356;28;20049;-55
2022/08/14 01:44:00;;;;;;;7.97;7.03;;;20.00;86.80;;;;;;5077362;28;20408;-52
2022/08/14 01:46:29;;;;;;;8.05;7.25;;;20.10;86.80;;;;;;5083214;28;20048;-52
2022/08/14 01:48:56;;;;;;;9.55;7.28;;;20.10;86.70;;;;;;5085851;28;20406;-56
2022/08/14 01:51:23;;;;;;;6.63;5.93;;;20.10;86.70;;;;;;5071715;28;20386;-56
2022/08/14 01:53:54;;;;;;;9.40;7.00;;;20.10;86.60;;;;;;5085493;28;20039;-52
2022/08/14 01:56:21;;;;;;;8.73;7.65;;;20.10;86.50;;;;;;5055723;28;20482;-56
2022/08/14 01:58:48;;;;;;;8.50;7.70;;;20.00;86.20;;;;;;5060727;28;20051;-53
2022/08/14 02:01:19;;;;;;;8.77;7.53;;;20.00;86.50;;;;;;5083737;28;20028;-56
2022/08/14 02:03:45;;;;;;;28.85;9.10;;;19.90;86.60;;;;;;5090375;28;20040;-54
2022/08/14 02:06:12;;;;;;;22.33;8.50;;;19.90;86.60;;;;;;5086433;28;20098;-57
2022/08/14 02:08:40;;;;;;;9.82;7.32;;;19.90;86.70;;;;;;5075379;28;20473;-56
2022/08/14 02:11:23;;;;;;;8.80;7.95;;;19.90;86.80;;;;;;5072054;28;20041;-56
2022/08/14 02:13:50;;;;;;;8.52;7.70;;;19.90;86.90;;;;;;5083417;28;20044;-53
2022/08/14 02:16:18;;;;;;;9.50;8.27;;;19.80;86.90;;;;;;5087301;28;20040;-55
2022/08/14 02:18:44;;;;;;;8.05;7.45;;;19.80;87.10;;;;;;5055956;28;20107;-55
2022/08/14 02:21:13;;;;;;;8.20;7.50;;;19.80;87.10;;;;;;5086581;28;20126;-56
2022/08/14 02:23:39;;;;;;;9.43;7.85;;;19.80;87.20;;;;;;5076730;28;20064;-54
2022/08/14 02:26:15;;;;;;;8.70;7.95;;;19.70;87.50;;;;;;5068269;28;20512;-53
2022/08/14 02:28:41;;;;;;;9.75;8.80;;;19.70;88.10;;;;;;5075189;28;20040;-52
2022/08/14 02:31:07;;;;;;;;;;;19.70;88.00;;;;;;5088116;28;20036;-53
2022/08/14 02:33:34;;;;;;;9.32;8.43;;;19.70;88.70;;;;;;5074755;28;20197;-54
2022/08/14 02:36:02;;;;;;;9.35;8.25;;;19.60;87.90;;;;;;5071064;28;20044;-51
2022/08/14 02:38:29;;;;;;;8.85;8.00;;;19.60;88.20;;;;;;5068367;28;20040;-56
2022/08/14 02:40:56;;;;;;;9.90;8.55;;;19.60;88.30;;;;;;5084702;28;20047;-54
2022/08/14 02:43:22;;;;;;;8.98;7.30;;;19.70;88.60;;;;;;5076469;28;20090;-51
2022/08/14 02:45:48;;;;;;;8.95;8.05;;;19.60;88.40;;;;;;5085795;28;20036;-52
2022/08/14 02:48:14;;;;;;;13.07;8.30;;;19.60;88.60;;;;;;5081692;28;20515;-53
2022/08/14 02:50:40;;;;;;;;;;;19.60;88.50;;;;;;5081450;28;20075;-51
2022/08/14 02:53:07;;;;;;;9.45;8.55;;;19.60;89.40;;;;;;5084701;28;20397;-53
2022/08/14 02:55:32;;;;;;;9.48;8.57;;;19.60;88.70;;;;;;5084207;28;20047;-56
2022/08/14 02:57:58;;;;;;;8.57;7.78;;;19.50;88.80;;;;;;5082871;28;20036;-51
2022/08/14 03:00:24;;;;;;;;;;;19.50;88.90;;;;;;5084524;28;20036;-53
2022/08/14 03:02:50;;;;;;;9.30;8.30;;;19.50;89.80;;;;;;5046062;28;19966;-52
2022/08/14 03:05:19;;;;;;;9.27;8.25;;;19.40;89.40;;;;;;5074824;28;20048;-53
2022/08/14 03:07:44;;;;;;;9.70;7.63;;;19.40;89.40;;;;;;5078195;28;20039;-51
2022/08/14 03:10:10;;;;;;;8.65;7.95;;;19.40;89.60;;;;;;5092745;28;20028;-51
2022/08/14 03:12:36;;;;;;;;;;;19.30;90.00;;;;;;5083815;28;20137;-53
2022/08/14 03:15:13;;;;;;;10.00;9.00;;;19.30;90.30;;;;;;5074539;28;19916;-55
2022/08/14 03:17:39;;;;;;;11.38;8.20;;;19.30;89.90;;;;;;5079629;28;20032;-56
2022/08/14 03:20:06;;;;;;;11.00;7.82;;;19.30;90.10;;;;;;5087470;28;20405;-54
2022/08/14 03:22:32;;;;;;;9.27;8.40;;;19.20;90.30;;;;;;5074798;28;20158;-52
2022/08/14 03:25:00;;;;;;;10.15;8.88;;;19.20;90.30;;;;;;5086268;28;20452;-57
2022/08/14 03:27:29;;;;;;;9.57;8.40;;;19.20;90.30;;;;;;5087146;28;20044;-54
2022/08/14 03:29:54;;;;;;;9.32;8.40;;;19.10;90.30;;;;;;5075373;28;20036;-51
2022/08/14 03:32:20;;;;;;;9.45;8.30;;;19.10;90.50;;;;;;5074257;28;20565;-54
2022/08/14 03:34:45;;;;;;;10.18;8.60;;;19.10;90.60;;;;;;5079310;28;20563;-50
2022/08/14 03:37:11;;;;;;;;;;;19.10;90.90;;;;;;5080454;28;20048;-55
2022/08/14 03:39:37;;;;;;;9.82;9.00;;;19.10;91.10;;;;;;5085533;28;19916;-57
2022/08/14 03:42:03;;;;;;;;;;;19.10;90.90;;;;;;5073526;28;20494;-53
2022/08/14 03:44:31;;;;;;;11.60;9.43;;;19.00;91.10;;;;;;5074219;28;20238;-51
2022/08/14 03:46:57;;;;;;;9.35;8.45;;;19.00;90.80;;;;;;5089758;28;20450;-51
2022/08/14 03:49:24;;;;;;;11.23;9.35;;;19.00;91.00;;;;;;5078478;28;20036;-51
2022/08/14 03:51:49;;;;;;;13.02;9.63;;;19.00;91.20;;;;;;5091927;28;20079;-53
2022/08/14 03:54:16;;;;;;;9.90;8.55;;;19.00;91.60;;;;;;5078621;28;20064;-51
2022/08/14 03:56:43;;;;;;;;;;;19.00;91.40;;;;;;5090306;28;20090;-54
2022/08/14 03:59:12;;;;;;;8.57;7.88;;;19.00;91.90;;;;;;5072179;28;20354;-52
2022/08/14 04:01:38;;;;;;;10.90;8.98;;;18.90;91.60;;;;;;5074005;28;20421;-53
2022/08/14 04:04:05;;;;;;;10.75;9.63;;;18.90;91.60;;;;;;5082161;28;20036;-55
2022/08/14 04:06:32;;;;;;;10.85;9.05;;;18.90;91.70;;;;;;5074241;28;20033;-55
2022/08/14 04:08:58;;;;;;;8.77;7.97;;;18.90;92.00;;;;;;5088257;28;20405;-55
2022/08/14 04:11:24;;;;;;;8.55;7.75;;;18.80;92.10;;;;;;5073093;28;20035;-52
2022/08/14 04:13:49;;;;;;;;;;;18.80;91.70;;;;;;5078034;28;20032;-55
2022/08/14 04:16:20;;;;;;;9.77;8.90;;;18.80;92.00;;;;;;5076926;28;20459;-52
2022/08/14 04:18:50;;;;;;;11.32;10.23;;;18.70;91.90;;;;;;5075737;28;20150;-53
2022/08/14 04:21:16;;;;;;;10.55;9.02;;;18.70;92.10;;;;;;5078806;28;20127;-52
2022/08/14 04:23:43;;;;;;;10.88;9.77;;;18.60;92.20;;;;;;5078883;28;20036;-52
2022/08/14 04:26:11;;;;;;;9.93;9.07;;;18.60;92.40;;;;;;5083136;28;20044;-54
2022/08/14 04:28:38;;;;;;;9.70;8.80;;;18.50;92.60;;;;;;5073860;28;20411;-51
2022/08/14 04:31:05;;;;;;;12.32;10.68;;;18.50;93.10;;;;;;5077876;28;20169;-54
2022/08/14 04:33:31;;;;;;;11.48;10.32;;;18.50;93.40;;;;;;5088888;28;20099;-52
2022/08/14 04:35:57;;;;;;;10.95;9.95;;;18.60;93.60;;;;;;5070961;28;20147;-56
2022/08/14 04:43:52;;;;;;;12.13;10.93;;;18.70;94.20;;;;;;5089241;28;20497;-54
2022/08/14 04:46:20;;;;;;;14.85;11.20;;;18.80;94.40;;;;;;5046185;28;1027532;-54
2022/08/14 04:48:47;;;;;;;11.80;10.82;;;18.80;94.30;;;;;;5074367;28;20036;-54
2022/08/14 04:51:18;;;;;;;10.25;9.35;;;18.80;94.00;;;;;;5085167;28;20028;-52
2022/08/14 04:53:45;;;;;;;11.02;10.02;;;18.70;94.00;;;;;;5074319;28;20040;-54
2022/08/14 04:56:21;;;;;;;10.80;9.85;;;18.70;94.10;;;;;;5089516;28;20047;-51
2022/08/14 04:58:48;;;;;;;12.18;10.95;;;18.70;94.20;;;;;;5073254;28;20044;-54
2022/08/14 05:01:14;;;;;;;12.07;11.02;;;18.70;94.40;;;;;;5088194;28;20035;-52
2022/08/14 05:03:40;;;;;;;12.32;11.13;;;18.70;94.50;;;;;;5072450;28;20044;-53
2022/08/14 05:06:08;;;;;;;45.80;13.05;;;18.80;94.90;;;;;;5087765;28;20051;-54
2022/08/14 05:08:34;;;;;;;12.23;11.13;;;18.90;95.10;;;;;;5071887;28;20044;-52
2022/08/14 05:11:01;;;;;;;;;;;18.90;95.20;;;;;;5088398;28;20040;-51
2022/08/14 05:13:29;;;;;;;13.35;11.65;;;18.90;95.80;;;;;;5072320;28;19981;-51
2022/08/14 05:15:57;;;;;;;13.13;11.98;;;18.90;95.40;;;;;;5081878;28;20090;-53
2022/08/14 05:18:25;;;;;;;12.23;11.13;;;19.00;95.50;;;;;;5076046;28;20036;-57
2022/08/14 05:20:53;;;;;;;16.67;12.55;;;19.10;95.70;;;;;;5078048;28;20499;-52
2022/08/14 05:23:24;;;;;;;12.95;11.85;;;19.10;95.80;;;;;;5082808;28;20044;-52
2022/08/14 05:25:55;;;;;;;13.75;11.65;;;19.10;95.90;;;;;;5082062;28;20048;-57
2022/08/14 05:28:24;;;;;;;11.65;10.52;;;19.20;96.00;;;;;;5084779;28;20047;-52
2022/08/14 05:30:52;;;;;;;17.95;10.73;;;19.30;96.10;;;;;;5084132;28;20497;-56
2022/08/14 05:33:19;;;;;;;13.57;11.50;;;19.40;96.10;;;;;;5091146;28;20089;-57
2022/08/14 05:35:46;;;;;;;12.20;11.20;;;19.50;96.30;;;;;;5083551;28;20172;-52
2022/08/14 05:38:15;;;;;;;12.20;11.05;;;19.50;96.30;;;;;;5088459;28;20043;-57
2022/08/14 05:40:42;;;;;;;172.07;18.17;;;19.60;96.40;;;;;;5077308;28;20067;-54
2022/08/14 05:43:08;;;;;;;57.95;11.57;;;19.70;96.50;;;;;;5083234;28;20520;-51
2022/08/14 05:45:34;;;;;;;15.85;8.82;;;19.80;96.30;;;;;;5083333;28;20036;-53
2022/08/14 05:48:01;;;;;;;11.18;10.07;;;19.90;96.10;;;;;;5090448;28;20512;-52
2022/08/14 05:50:26;;;;;;;8.45;7.72;;;20.00;96.00;;;;;;5083840;28;20424;-52
2022/08/14 05:52:53;;;;;;;10.73;9.63;;;20.20;96.00;;;;;;5070269;28;20124;-54
2022/08/14 05:55:20;;;;;;;10.90;9.02;;;20.30;95.90;;;;;;5089153;28;20039;-57
2022/08/14 05:57:48;;;;;;;13.23;9.65;;;20.40;95.70;;;;;;5086257;28;20032;-55
2022/08/14 06:00:15;;;;;;;10.02;9.13;;;20.50;95.80;;;;;;5071493;28;20040;-55
2022/08/14 06:02:41;;;;;;;15.63;10.13;;;20.60;95.70;;;;;;5071291;28;20405;-55
2022/08/14 06:05:07;;;;;;;;;;;20.70;95.80;;;;;;5076718;28;20035;-57
2022/08/14 06:07:35;;;;;;;12.00;9.05;;;20.80;95.80;;;;;;5081450;28;19916;-57
2022/08/14 06:10:02;;;;;;;10.25;9.18;;;20.90;95.40;;;;;;5079344;28;20080;-57
2022/08/14 06:12:27;;;;;;;11.68;9.30;;;20.90;95.30;;;;;;5069935;28;20472;-57
2022/08/14 06:14:53;;;;;;;;;;;21.00;95.20;;;;;;5084543;28;20122;-53
2022/08/14 06:17:18;;;;;;;11.20;9.20;;;21.10;94.90;;;;;;5070552;28;20011;-52
2022/08/14 06:19:44;;;;;;;;;;;21.10;94.70;;;;;;5085401;28;20394;-53
2022/08/14 06:22:09;;;;;;;10.52;9.10;;;21.20;94.90;;;;;;5082552;28;20002;-57
2022/08/14 06:24:35;;;;;;;;;;;21.40;94.80;;;;;;5070389;28;20128;-51
2022/08/14 06:27:02;;;;;;;10.93;8.85;;;21.50;94.70;;;;;;5069262;28;19924;-53
2022/08/14 06:29:28;;;;;;;8.63;7.85;;;21.50;94.30;;;;;;5070207;28;20052;-53
2022/08/14 06:31:53;;;;;;;;;;;21.60;94.20;;;;;;5071551;28;20119;-54
2022/08/14 06:34:18;;;;;;;8.50;7.70;;;21.70;94.00;;;;;;5069775;28;19926;-52
2022/08/14 06:36:44;;;;;;;;;;;21.80;93.90;;;;;;5070231;28;20044;-51
2022/08/14 06:39:09;;;;;;;8.98;8.13;;;21.90;94.00;;;;;;5070067;28;19920;-55
2022/08/14 06:41:35;;;;;;;;;;;22.00;93.60;;;;;;5070966;28;20067;-52
2022/08/14 06:44:01;;;;;;;13.48;9.98;;;22.10;93.90;;;;;;5069540;28;20377;-50
2022/08/14 06:46:29;;;;;;;;;;;22.20;93.10;;;;;;5071146;28;20078;-54
2022/08/14 06:48:55;;;;;;;11.90;10.18;;;22.20;93.10;;;;;;5081006;28;19917;-52
2022/08/14 06:51:21;;;;;;;;;;;22.30;92.70;;;;;;5070575;28;20040;-52
2022/08/14 06:53:46;;;;;;;10.10;8.30;;;22.40;92.90;;;;;;5070532;28;19961;-57
2022/08/14 06:56:13;;;;;;;11.02;7.65;;;22.50;92.70;;;;;;5069318;28;20043;-53
2022/08/14 06:58:38;;;;;;;8.85;8.07;;;22.60;92.50;;;;;;5069889;28;20119;-55
2022/08/14 07:06:32;;;;;;;7.40;6.80;;;22.90;92.20;;;;;;5083258;28;20044;-53
2022/08/14 07:08:57;;;;;;;;;;;23.10;92.00;;;;;;5082163;28;20044;-52
2022/08/14 07:11:23;;;;;;;7.70;6.85;;;23.10;92.00;;;;;;5088746;28;20328;-53
2022/08/14 07:13:48;;;;;;;9.10;7.50;;;23.30;91.80;;;;;;5078957;28;20351;-52
2022/08/14 07:16:14;;;;;;;7.03;6.43;;;23.40;91.60;;;;;;5068549;28;20044;-52
2022/08/14 07:18:40;;;;;;;;;;;23.50;91.50;;;;;;5079266;28;20040;-54
2022/08/14 07:21:07;;;;;;;10.93;8.13;;;23.60;91.40;;;;;;5089281;28;20346;-52
2022/08/14 07:23:33;;;;;;;10.02;7.43;;;23.70;91.50;;;;;;5086196;28;20486;-54
2022/08/14 07:26:00;;;;;;;10.75;7.82;;;23.70;91.30;;;;;;5088857;28;20036;-53
2022/08/14 07:28:28;;;;;;;8.48;7.35;;;23.90;91.00;;;;;;5083780;28;20562;-52
2022/08/14 07:30:56;;;;;;;9.13;7.90;;;23.90;90.90;;;;;;5097394;28;20118;-52
2022/08/14 07:33:28;;;;;;;6.75;6.25;;;24.00;90.90;;;;;;5092700;28;20028;-54
2022/08/14 07:35:54;;;;;;;10.73;6.55;;;24.10;90.40;;;;;;5070034;28;20043;-52
2022/08/14 07:38:22;;;;;;;9.70;6.82;;;24.20;90.40;;;;;;5068656;28;20101;-54
2022/08/14 07:40:49;;;;;;;8.30;6.35;;;24.30;90.20;;;;;;5073188;28;20119;-54
2022/08/14 07:43:15;;;;;;;7.35;6.70;;;24.40;90.10;;;;;;5072314;28;20044;-55
2022/08/14 07:45:41;;;;;;;6.90;6.30;;;24.50;90.00;;;;;;5073827;28;20044;-53
2022/08/14 07:48:07;;;;;;;7.10;6.47;;;24.60;89.60;;;;;;5072450;28;20075;-56
2022/08/14 07:50:33;;;;;;;6.93;6.22;;;24.70;89.60;;;;;;5084923;28;20059;-58
2022/08/14 07:52:59;;;;;;;7.15;5.95;;;24.80;89.00;;;;;;5092816;28;20094;-55
2022/08/14 07:55:25;;;;;;;8.30;7.50;;;24.80;88.90;;;;;;5081608;28;20032;-55
2022/08/14 07:57:51;;;;;;;7.93;6.68;;;24.90;88.90;;;;;;5078388;28;20090;-53
2022/08/14 08:00:21;;;;;;;7.53;6.00;;;25.00;88.80;;;;;;5087438;28;20037;-53
2022/08/14 08:02:51;;;;;;;7.00;6.43;;;25.00;88.10;;;;;;5072135;28;20040;-56
2022/08/14 08:05:18;;;;;;;9.93;5.82;;;25.10;87.50;;;;;;5072499;28;20415;-55
2022/08/14 08:07:45;;;;;;;6.70;6.13;;;25.20;87.50;;;;;;5093259;28;20495;-57
2022/08/14 08:10:33;;;;;;;6.63;6.22;;;25.30;87.50;;;;;;5097760;28;20421;-54
2022/08/14 08:13:11;;;;;;;5.88;5.35;;;25.40;86.90;;;;;;5072151;28;20032;-54
2022/08/14 08:15:48;;;;;;;6.13;5.55;;;25.50;87.30;;;;;;5074043;28;20084;-53
2022/08/14 08:18:16;;;;;;;5.38;4.88;;;25.60;86.00;;;;;;5072622;28;20094;-54
2022/08/14 08:20:47;;;;;;;5.75;5.25;;;25.70;86.10;;;;;;5054423;28;20040;-57
2022/08/14 08:23:15;;;;;;;6.25;4.88;;;25.80;85.30;;;;;;5072203;28;20135;-55
2022/08/14 08:25:43;;;;;;;7.30;6.60;;;25.90;85.10;;;;;;5037727;28;20051;-57
2022/08/14 08:28:12;;;;;;;6.13;5.43;;;26.00;84.50;;;;;;5072839;28;20470;-53
2022/08/14 08:30:41;;;;;;;5.45;4.95;;;26.00;84.70;;;;;;5080505;28;20037;-56
2022/08/14 08:33:09;;;;;;;120.25;10.48;;;26.10;84.90;;;;;;5073133;28;20457;-52
2022/08/14 08:35:37;;;;;;;8.68;4.82;;;26.20;85.20;;;;;;5087175;28;20072;-53
2022/08/14 08:38:09;;;;;;;22.98;5.72;;;26.20;84.20;;;;;;5081782;28;20040;-57
2022/08/14 08:40:39;;;;;;;5.22;4.50;;;26.30;84.30;;;;;;5080949;28;20044;-53
2022/08/14 08:43:15;;;;;;;5.93;4.70;;;26.40;83.80;;;;;;5088819;28;20071;-55
2022/08/14 08:45:40;;;;;;;6.30;4.67;;;26.50;82.90;;;;;;5088946;28;20036;-53
2022/08/14 08:48:06;;;;;;;5.25;4.78;;;26.50;82.70;;;;;;5077139;28;20284;-55
2022/08/14 08:50:38;;;;;;;5.90;5.28;;;26.60;83.10;;;;;;5077031;28;20071;-56
2022/08/14 08:53:06;;;;;;;12.55;6.13;;;26.70;83.50;;;;;;5071187;28;20033;-54
2022/08/14 08:55:43;;;;;;;4.78;4.38;;;26.70;82.90;;;;;;5089763;28;20083;-53
2022/08/14 08:58:11;;;;;;;5.30;4.80;;;26.80;82.50;;;;;;5088882;28;20040;-57
2022/08/14 09:00:39;;;;;;;6.32;4.57;;;26.90;82.00;;;;;;5078023;28;20040;-54
2022/08/14 09:03:09;;;;;;;9.73;4.65;;;27.00;81.80;;;;;;5050410;28;20044;-53
2022/08/14 09:05:37;;;;;;;4.88;4.38;;;27.00;81.00;;;;;;5073797;28;20620;-57
2022/08/14 09:08:14;;;;;;;11.13;4.97;;;27.10;81.90;;;;;;5075111;28;20032;-59
2022/08/14 09:10:41;;;;;;;15.15;5.43;;;27.10;80.90;;;;;;5069810;28;20394;-57
2022/08/14 09:13:07;;;;;;;6.13;4.78;;;27.10;80.90;;;;;;5079888;28;20027;-57
2022/08/14 09:15:32;;;;;;;5.43;4.90;;;27.20;81.20;;;;;;5080373;28;20033;-54
2022/08/14 09:17:59;;;;;;;6.20;5.55;;;27.20;80.70;;;;;;5071228;28;20075;-57
2022/08/14 09:20:24;;;;;;;5.65;4.97;;;27.20;80.70;;;;;;5071630;28;20406;-54
2022/08/14 09:22:51;;;;;;;8.15;5.15;;;27.30;80.40;;;;;;5073265;28;20409;-52
2022/08/14 09:25:17;;;;;;;5.78;5.22;;;27.30;79.20;;;;;;5077287;28;20040;-54
2022/08/14 09:27:43;;;;;;;5.95;5.30;;;27.40;79.50;;;;;;5069952;28;20067;-53
2022/08/14 09:30:10;;;;;;;7.13;5.20;;;27.40;79.60;;;;;;5078357;28;20048;-54
2022/08/14 09:33:01;;;;;;;5.93;5.50;;;27.40;79.70;;;;;;5070135;28;20306;-54
2022/08/14 09:35:55;;;;;;;9.93;5.57;;;27.50;79.10;;;;;;5058546;28;20075;-54
2022/08/14 09:38:46;;;;;;;6.75;4.80;;;27.50;78.70;;;;;;5077468;28;20055;-57
2022/08/14 09:41:33;;;;;;;10.27;5.18;;;27.60;79.20;;;;;;5083293;28;20590;-58
2022/08/14 09:44:27;;;;;;;10.57;5.53;;;27.60;78.20;;;;;;5088559;28;20071;-58
2022/08/14 09:46:54;;;;;;;26.52;6.28;;;27.70;78.70;;;;;;5086895;28;20049;-55
2022/08/14 09:49:35;;;;;;;7.85;4.65;;;27.70;78.00;;;;;;5064404;28;20097;-56
2022/08/14 09:52:05;;;;;;;5.88;5.38;;;27.80;77.60;;;;;;5066771;28;20040;-55
2022/08/14 09:54:46;;;;;;;5.28;4.38;;;27.90;77.20;;;;;;5090478;28;20064;-53
2022/08/14 09:57:26;;;;;;;5.13;4.30;;;27.90;76.40;;;;;;5089124;28;20040;-55
2022/08/14 09:59:52;;;;;;;5.90;5.22;;;28.00;76.70;;;;;;5087899;28;20435;-57
2022/08/14 10:02:21;;;;;;;5.47;5.07;;;28.00;76.20;;;;;;5088662;28;20489;-53
2022/08/14 10:05:06;;;;;;;7.20;5.45;;;28.10;76.50;;;;;;5090130;28;20062;-53
2022/08/14 10:07:34;;;;;;;6.07;5.50;;;28.10;76.30;;;;;;5089276;28;20405;-54
2022/08/14 10:10:00;;;;;;;5.40;4.53;;;28.20;76.40;;;;;;5069373;28;20048;-54
2022/08/14 10:12:47;;;;;;;5.63;5.18;;;28.30;76.40;;;;;;5088375;28;20131;-56
2022/08/14 10:15:14;;;;;;;;;;;28.30;74.80;;;;;;5086307;28;20033;-55
2022/08/14 10:17:40;;;;;;;5.68;5.20;;;28.40;75.00;;;;;;5076823;28;20347;-57
2022/08/14 10:20:08;;;;;;;4.55;3.92;;;28.40;75.20;;;;;;5075770;28;20044;-55
2022/08/14 10:22:34;;;;;;;5.38;4.85;;;28.50;75.10;;;;;;5079683;28;20036;-53
2022/08/14 10:25:10;;;;;;;4.60;4.22;;;28.60;75.10;;;;;;5077395;28;20073;-53
2022/08/14 10:27:36;;;;;;;4.25;3.95;;;28.60;73.50;;;;;;5077637;28;20512;-57
2022/08/14 10:30:10;;;;;;;4.90;4.53;;;28.70;74.60;;;;;;5071065;28;20119;-56
2022/08/14 10:32:43;;;;;;;3.83;3.63;;;28.80;73.40;;;;;;5051416;28;20036;-53
2022/08/14 10:35:10;;;;;;;4.70;4.40;;;28.80;73.10;;;;;;5068871;28;20040;-53
2022/08/14 10:37:41;;;;;;;4.55;3.95;;;28.80;73.10;;;;;;5072946;28;20044;-52
2022/08/14 10:40:08;;;;;;;15.98;3.90;;;28.80;73.20;;;;;;5089829;28;20036;-56
2022/08/14 10:42:42;;;;;;;4.68;4.28;;;28.90;73.20;;;;;;5085599;28;20067;-54
2022/08/14 10:45:22;;;;;;;13.02;4.97;;;29.00;72.60;;;;;;5085664;28;20517;-55
2022/08/14 10:47:51;;;;;;;7.05;4.50;;;29.00;73.00;;;;;;5070791;28;20037;-53
2022/08/14 10:50:31;;;;;;;5.13;4.10;;;29.10;72.90;;;;;;5089542;28;20032;-52
2022/08/14 10:52:58;;;;;;;4.25;3.72;;;29.20;72.90;;;;;;5072004;28;20037;-52
2022/08/14 10:55:38;;;;;;;25.40;5.18;;;29.20;72.40;;;;;;5087454;28;20039;-55
2022/08/14 10:58:08;;;;;;;6.95;4.30;;;29.30;72.00;;;;;;5088928;28;20043;-58
2022/08/14 11:00:35;;;;;;;4.82;4.32;;;29.40;73.00;;;;;;5088015;28;20028;-55
2022/08/14 11:03:09;;;;;;;9.52;4.40;;;29.40;72.30;;;;;;5070236;28;20116;-52
2022/08/14 11:05:43;;;;;;;4.22;3.45;;;29.40;72.10;;;;;;5085641;28;20059;-54
2022/08/14 11:08:11;;;;;;;4.82;4.45;;;29.40;71.40;;;;;;5089691;28;20032;-56
2022/08/14 11:10:46;;;;;;;7.30;3.70;;;29.40;70.90;;;;;;5074834;28;20440;-50
2022/08/14 11:13:23;;;;;;;4.93;3.70;;;29.40;70.60;;;;;;5080046;28;20071;-52
2022/08/14 11:15:50;;;;;;;6.03;3.90;;;29.40;70.30;;;;;;5075654;28;20112;-51
2022/08/14 11:18:17;;;;;;;4.10;3.80;;;29.40;70.10;;;;;;5082688;28;20397;-53
2022/08/14 11:20:54;;;;;;;4.00;3.75;;;29.40;69.90;;;;;;5084179;28;20076;-50
2022/08/14 11:23:25;;;;;;;3.90;3.55;;;29.50;70.80;;;;;;5087269;28;20075;-52
2022/08/14 11:25:51;;;;;;;4.53;3.88;;;29.50;71.10;;;;;;5088507;28;20047;-52
2022/08/14 11:28:22;;;;;;;5.82;4.18;;;29.60;70.30;;;;;;5092734;28;20062;-53
2022/08/14 11:30:49;;;;;;;4.15;3.75;;;29.70;70.40;;;;;;5093186;28;20048;-52
2022/08/14 11:33:15;;;;;;;5.07;4.38;;;29.80;70.70;;;;;;5084365;28;20055;-51
2022/08/14 11:35:45;;;;;;;4.43;3.70;;;29.80;69.90;;;;;;5074884;28;20558;-53
2022/08/14 11:38:11;;;;;;;4.85;4.00;;;29.90;69.00;;;;;;5080859;28;20036;-52
2022/08/14 11:40:38;;;;;;;3.63;3.42;;;29.90;69.30;;;;;;5084187;28;20046;-51
2022/08/14 11:43:06;;;;;;;3.70;3.40;;;30.00;69.80;;;;;;5087657;28;20110;-54
2022/08/14 11:45:35;;;;;;;31.95;6.43;;;30.00;68.00;;;;;;5083696;28;20055;-51
2022/08/14 11:48:22;;;;;;;5.32;3.67;;;30.00;68.40;;;;;;5080940;28;20443;-52
2022/08/14 11:50:50;;;;;;;3.90;3.60;;;30.10;69.10;;;;;;5063580;28;20052;-53
2022/08/14 11:53:29;;;;;;;2.92;2.78;;;30.20;67.50;;;;;;5090866;28;20028;-52
2022/08/14 11:56:03;;;;;;;3.67;3.15;;;30.20;67.30;;;;;;5091674;28;20097;-52
2022/08/14 11:58:37;;;;;;;3.45;3.25;;;30.20;66.70;;;;;;5086763;28;20170;-52
2022/08/14 12:01:08;;;;;;;3.72;3.50;;;30.10;67.50;;;;;;5072644;28;20134;-48
2022/08/14 12:03:44;;;;;;;3.28;3.03;;;30.10;68.00;;;;;;5086394;28;20055;-54
2022/08/14 12:06:12;;;;;;;3.63;3.40;;;30.10;66.80;;;;;;5081401;28;20071;-51
2022/08/14 12:08:38;;;;;;;3.65;3.35;;;29.90;66.60;;;;;;5082932;28;20043;-52
2022/08/14 12:11:09;;;;;;;3.67;3.38;;;29.80;67.10;;;;;;5092529;28;20040;-52
2022/08/14 12:13:35;;;;;;;3.95;3.53;;;29.80;67.00;;;;;;5086466;28;20036;-53
2022/08/14 12:16:04;;;;;;;3.72;3.25;;;29.80;67.60;;;;;;5085282;28;20046;-53
2022/08/14 12:18:34;;;;;;;5.13;3.67;;;30.00;67.00;;;;;;5086690;28;20032;-51
2022/08/14 12:21:24;;;;;;;2.58;2.35;;;30.20;66.90;;;;;;5090651;28;20401;-50
2022/08/14 12:24:05;;;;;;;4.88;2.85;;;30.30;65.70;;;;;;5085435;28;20040;-51
2022/08/14 12:26:31;;;;;;;2.92;2.72;;;30.40;65.70;;;;;;5065595;28;20051;-52
2022/08/14 12:29:17;;;;;;;4.13;2.78;;;30.50;66.70;;;;;;5089025;28;20036;-53
2022/08/14 12:31:43;;;;;;;3.30;3.10;;;30.60;66.00;;;;;;5082665;28;20044;-53
2022/08/14 12:34:11;;;;;;;3.60;3.05;;;30.40;64.80;;;;;;5086069;28;20032;-51
2022/08/14 12:36:37;;;;;;;3.40;3.13;;;30.30;65.40;;;;;;5087292;28;20153;-51
2022/08/14 12:39:16;;;;;;;3.22;3.00;;;30.00;65.20;;;;;;5085226;28;20131;-53
2022/08/14 12:41:54;;;;;;;2.95;2.75;;;29.80;65.10;;;;;;5090435;28;20512;-52
2022/08/14 12:44:34;;;;;;;3.28;2.95;;;29.90;65.90;;;;;;5084862;28;20059;-51
2022/08/14 12:47:28;;;;;;;3.40;3.03;;;30.00;65.30;;;;;;5087081;28;20101;-52
2022/08/14 12:49:54;;;;;;;74.20;7.15;;;30.10;65.40;;;;;;5071675;28;20036;-52
2022/08/14 12:52:39;;;;;;;4.18;2.95;;;30.30;65.70;;;;;;5086633;28;20032;-52
2022/08/14 12:55:13;;;;;;;3.05;2.75;;;30.30;64.00;;;;;;5088209;28;20043;-50
2022/08/14 12:57:42;;;;;;;5.45;3.08;;;30.40;63.80;;;;;;5082439;28;20041;-51
2022/08/14 13:00:11;;;;;;;2.65;2.55;;;30.60;64.70;;;;;;5086289;28;20096;-54
2022/08/14 13:02:39;;;;;;;2.58;2.38;;;30.60;64.10;;;;;;5084900;28;20047;-51
2022/08/14 13:05:08;;;;;;;5.90;3.55;;;30.60;64.30;;;;;;5086068;28;20044;-51
2022/08/14 13:07:36;;;;;;;2.15;2.05;;;30.60;63.50;;;;;;5087715;28;20550;-51
2022/08/14 13:10:03;;;;;;;3.17;2.97;;;30.60;63.60;;;;;;5091590;28;20051;-52
2022/08/14 13:12:31;;;;;;;3.20;2.90;;;30.60;63.30;;;;;;5090959;28;20032;-51